San Luis Potosi, Mexico

5:25 AM CDT on July 05, 2015 (GMT -0500)
Ponciano Arriaga International | | Change Station
CLOSE
Current Station
Airport
Location: San Luis Potosi,
Elevation: 6033 ft
Nearby Weather Stations

Elev 6033 ft 22.26 °N, 100.93 °W | Updated 42 minutes ago

Overcast
Overcast
61 °F
Feels Like 61 °F
N
0
Wind Variable Wind from North

Today
High -- | Low -- °F
--% Chance of Precip.
Yesterday
High -- | Low -- °F
Precip. -- in
7:04 AM 8:31 PM
Waning Gibbous, 86% visible
Pressure 30.27 in
Visibility 4.0 miles
Clouds Mostly Cloudy 2000 ft
Overcast 8000 ft
Dew Point 59 °F
Humidity 94%
Rainfall 0.35 in
Snow Depth Not available.
UV 0 out of 12
Pollen Not available.
Air Quality Not available.
Flu Activity Not available.
METAR MMSP 050943Z 00000KT 4SM BKN020 OVC080 16/15 A3027 RMK 8/57/

More Conditions Fewer Conditions

Pressure 30.27 in
Visibility 4.0 miles
Clouds Mostly Cloudy 2000 ft
Overcast 8000 ft
Dew Point 59 °F
Humidity 94%
Rainfall 0.35 in
Snow Depth Not available.
UV 0 out of 12
Pollen Not available.
Air Quality Not available.
Flu Activity Not available.
METAR MMSP 050943Z 00000KT 4SM BKN020 OVC080 16/15 A3027 RMK 8/57/

More Conditions Fewer Conditions

10-Day Weather Forecast

×

Almanac

Astronomy

Jul. 05, 2015 Rise Set
Actual Time
Civil Twilight
Nautical Twilight
Astronomical Twilight
Moon
Length of Visible Light
Length of Day
Tomorrow will be .
, % of the Moon is Illuminated

Today's Extremes

Country Highs Country Lows

Community

WunderPhotos

Upload Photos

1,835,220 photos uploaded!

WunderBlogs® & News

Nearby

Air Quality

  Air Quality AQ Index Pollutant
Not available.

Snow Depth

Station Depth Elevation

Earthquake Activity

City Distance Mag. Time & Date
Minimum magnitude displayed is 2.5.

Coastal Water Temperatures

Place Temperature

Stations

Nearby Weather Stations

Station Location Temp. Windchill Dew Point Humidity Wind Precip. Elev Updated Type